Aérodrome :
LOGIN :

S'inscrire | Disclaimer

   EN    FR    IT 

 










Légende :    VFR   VFR Marginal   IFR   IFR Intensif   IFR Très Intensif
Visi : 
Plafond : 
>= 8 km
>= 3000ft
5 à 8 km
1000 à 3000 ft
1500m à 5 km
500 à 1000 ft
800 à 1500m
200 à 500 ft
< 800m
< 200 ft
Symboles :   Orages  Brouillard  Fortes neiges  Fortes précipitations  Vent > 20 kt
SIGMETs :   Divers  Orages  Givrage  Turbulence  Onde Orograph.  Cendres Volcan.






- Altitude de l'aérodrome : 38 ft
- Code IATA : BOH


EGHH - Bournemouth

METAR N/A
TAF TAF EGHH
Valide du 15 à 00h jusqu'au 15 à 09h UTC


142303Z 1500/1509 22015KT 9999 FEW030
TEMPO 1500/1509 26016G26KT
TEMPO 1500/1505 7000 SHRA
PROB30
TEMPO 1500/1505 4000 +SHRA BKN008
TEMPO 1507/1509 7000 SHRA
PROB30
TEMPO 1507/1509 4000 +SHRA BKN008
ATIS : +44 1202 364 151
Météo : +44 1202 364 158 (TAF)



MET'MAP, la Météo Aéronautique d'un coup d'oeil ! - Copyright ORBIFLY Décembre 2007 - Disclaimer

ORBIFLY MET'MAP TEAM :

Programmation & Développement : Alexandra Zaïnal
Sur une idée originale de : Baudouin d'Aumeries
Assistance à la programmation : Marc-Olivier Méhu
Soutien technique & logistique : Manuel Goepfert

Contact : metmap@orbifly.com




SOURCES & CREDITS :

   NOAA